sensor_id;sensor_type;location;lat;lon;timestamp;pressure;altitude;pressure_sealevel;temperature;humidity
57628;BME280;43451;49.060;10.616;2023-10-08T00:00:26;97420.47;;;15.78;76.10
57628;BME280;43451;49.060;10.616;2023-10-08T00:03:10;97425.91;;;15.82;74.92
57628;BME280;43451;49.060;10.616;2023-10-08T00:05:40;97420.31;;;15.92;72.56
57628;BME280;43451;49.060;10.616;2023-10-08T00:08:06;97421.00;;;16.00;72.56
57628;BME280;43451;49.060;10.616;2023-10-08T00:10:39;97422.63;;;15.94;73.84
57628;BME280;43451;49.060;10.616;2023-10-08T00:13:10;97414.47;;;15.90;74.35
57628;BME280;43451;49.060;10.616;2023-10-08T00:15:36;97418.41;;;15.86;74.19
57628;BME280;43451;49.060;10.616;2023-10-08T00:18:03;97409.84;;;15.84;75.11
57628;BME280;43451;49.060;10.616;2023-10-08T00:20:37;97418.97;;;15.73;75.80
57628;BME280;43451;49.060;10.616;2023-10-08T00:23:13;97415.06;;;15.71;77.29
57628;BME280;43451;49.060;10.616;2023-10-08T00:25:42;97401.84;;;15.62;77.58
57628;BME280;43451;49.060;10.616;2023-10-08T00:28:12;97408.81;;;15.70;76.99
57628;BME280;43451;49.060;10.616;2023-10-08T00:30:42;97412.75;;;15.66;78.07
57628;BME280;43451;49.060;10.616;2023-10-08T00:33:08;97397.41;;;15.75;76.15
57628;BME280;43451;49.060;10.616;2023-10-08T00:35:41;97400.56;;;15.74;75.80
57628;BME280;43451;49.060;10.616;2023-10-08T00:38:11;97393.84;;;15.78;76.19
57628;BME280;43451;49.060;10.616;2023-10-08T00:40:46;97395.69;;;15.89;75.05
57628;BME280;43451;49.060;10.616;2023-10-08T00:45:58;97385.00;;;15.98;73.82
57628;BME280;43451;49.060;10.616;2023-10-08T00:48:25;97374.22;;;15.84;75.82
57628;BME280;43451;49.060;10.616;2023-10-08T00:50:56;97379.31;;;15.82;76.81
57628;BME280;43451;49.060;10.616;2023-10-08T00:53:35;97379.09;;;15.65;78.34
57628;BME280;43451;49.060;10.616;2023-10-08T00:56:06;97382.25;;;15.67;77.33
57628;BME280;43451;49.060;10.616;2023-10-08T00:58:41;97387.34;;;15.62;78.27
57628;BME280;43451;49.060;10.616;2023-10-08T01:01:06;97380.97;;;15.75;75.07
57628;BME280;43451;49.060;10.616;2023-10-08T01:03:36;97389.69;;;15.67;77.58
57628;BME280;43451;49.060;10.616;2023-10-08T01:06:04;97392.34;;;15.74;74.89
57628;BME280;43451;49.060;10.616;2023-10-08T01:08:35;97386.91;;;15.70;76.12
57628;BME280;43451;49.060;10.616;2023-10-08T01:11:20;97374.75;;;15.71;76.30
57628;BME280;43451;49.060;10.616;2023-10-08T01:14:11;97386.06;;;15.77;73.13
57628;BME280;43451;49.060;10.616;2023-10-08T01:16:37;97388.50;;;15.64;76.25
57628;BME280;43451;49.060;10.616;2023-10-08T01:19:04;97390.56;;;15.53;76.32
57628;BME280;43451;49.060;10.616;2023-10-08T01:21:37;97386.38;;;15.45;77.21
57628;BME280;43451;49.060;10.616;2023-10-08T01:24:05;97389.47;;;15.47;75.62
57628;BME280;43451;49.060;10.616;2023-10-08T01:26:33;97375.47;;;15.38;78.64
57628;BME280;43451;49.060;10.616;2023-10-08T01:28:59;97383.09;;;15.57;75.26
57628;BME280;43451;49.060;10.616;2023-10-08T01:31:32;97387.44;;;15.54;75.79
57628;BME280;43451;49.060;10.616;2023-10-08T01:33:58;97391.31;;;15.57;75.94
57628;BME280;43451;49.060;10.616;2023-10-08T01:36:26;97393.47;;;15.39;77.39
57628;BME280;43451;49.060;10.616;2023-10-08T01:38:53;97398.56;;;15.37;76.02
57628;BME280;43451;49.060;10.616;2023-10-08T01:41:20;97390.75;;;15.39;76.76
57628;BME280;43451;49.060;10.616;2023-10-08T01:43:56;97382.47;;;15.42;74.19
57628;BME280;43451;49.060;10.616;2023-10-08T01:46:23;97391.44;;;15.46;75.86
57628;BME280;43451;49.060;10.616;2023-10-08T01:48:51;97382.38;;;15.53;74.62
57628;BME280;43451;49.060;10.616;2023-10-08T01:51:25;97390.22;;;15.51;74.47
57628;BME280;43451;49.060;10.616;2023-10-08T01:54:02;97394.91;;;15.50;73.27
57628;BME280;43451;49.060;10.616;2023-10-08T01:56:29;97391.09;;;15.41;76.71
57628;BME280;43451;49.060;10.616;2023-10-08T01:58:55;97389.16;;;15.38;76.35
57628;BME280;43451;49.060;10.616;2023-10-08T02:01:21;97384.81;;;15.44;74.94
57628;BME280;43451;49.060;10.616;2023-10-08T02:03:46;97388.13;;;15.24;77.30
57628;BME280;43451;49.060;10.616;2023-10-08T02:06:13;97386.97;;;15.22;75.85
57628;BME280;43451;49.060;10.616;2023-10-08T02:08:38;97388.28;;;15.10;78.89
57628;BME280;43451;49.060;10.616;2023-10-08T02:11:04;97388.28;;;15.10;76.87
57628;BME280;43451;49.060;10.616;2023-10-08T02:13:29;97384.47;;;14.93;80.36
57628;BME280;43451;49.060;10.616;2023-10-08T02:15:55;97383.59;;;15.07;76.14
57628;BME280;43451;49.060;10.616;2023-10-08T02:18:21;97381.59;;;15.11;75.09
57628;BME280;43451;49.060;10.616;2023-10-08T02:20:48;97382.53;;;14.97;76.17
57628;BME280;43451;49.060;10.616;2023-10-08T02:23:14;97393.22;;;14.77;82.07
57628;BME280;43451;49.060;10.616;2023-10-08T02:25:40;97390.13;;;14.75;80.86
57628;BME280;43451;49.060;10.616;2023-10-08T02:28:09;97388.97;;;14.73;79.38
57628;BME280;43451;49.060;10.616;2023-10-08T02:30:35;97387.09;;;14.62;81.53
57628;BME280;43451;49.060;10.616;2023-10-08T02:33:02;97382.41;;;14.59;80.76
57628;BME280;43451;49.060;10.616;2023-10-08T02:35:28;97402.28;;;14.67;81.09
57628;BME280;43451;49.060;10.616;2023-10-08T02:37:53;97402.28;;;14.67;81.07
57628;BME280;43451;49.060;10.616;2023-10-08T02:40:20;97409.41;;;14.50;86.08
57628;BME280;43451;49.060;10.616;2023-10-08T02:42:53;97418.03;;;14.42;84.62
57628;BME280;43451;49.060;10.616;2023-10-08T02:45:26;97420.84;;;14.27;87.86
57628;BME280;43451;49.060;10.616;2023-10-08T02:47:53;97411.53;;;14.14;88.26
57628;BME280;43451;49.060;10.616;2023-10-08T02:50:19;97423.97;;;14.26;84.52
57628;BME280;43451;49.060;10.616;2023-10-08T02:52:45;97412.31;;;14.18;89.01
57628;BME280;43451;49.060;10.616;2023-10-08T02:55:11;97412.69;;;14.20;86.89
57628;BME280;43451;49.060;10.616;2023-10-08T02:58:03;97416.19;;;14.24;90.24
57628;BME280;43451;49.060;10.616;2023-10-08T03:00:29;97408.41;;;14.19;88.02
57628;BME280;43451;49.060;10.616;2023-10-08T03:02:57;97416.16;;;14.31;84.59
57628;BME280;43451;49.060;10.616;2023-10-08T03:05:26;97410.72;;;14.21;88.95
57628;BME280;43451;49.060;10.616;2023-10-08T03:07:56;97417.72;;;14.25;88.75
57628;BME280;43451;49.060;10.616;2023-10-08T03:10:23;97418.56;;;14.19;89.13
57628;BME280;43451;49.060;10.616;2023-10-08T03:12:57;97412.66;;;14.27;92.21
57628;BME280;43451;49.060;10.616;2023-10-08T03:15:29;97422.44;;;14.21;89.53
57628;BME280;43451;49.060;10.616;2023-10-08T03:17:56;97418.56;;;14.19;88.01
57628;BME280;43451;49.060;10.616;2023-10-08T03:20:23;97424.00;;;14.22;89.93
57628;BME280;43451;49.060;10.616;2023-10-08T03:23:03;97420.50;;;14.22;88.43
57628;BME280;43451;49.060;10.616;2023-10-08T03:25:50;97427.13;;;14.24;87.90
57628;BME280;43451;49.060;10.616;2023-10-08T03:28:21;97425.56;;;14.20;88.98
57628;BME280;43451;49.060;10.616;2023-10-08T03:30:51;97416.19;;;14.24;88.69
57628;BME280;43451;49.060;10.616;2023-10-08T03:33:17;97411.50;;;14.25;88.00
57628;BME280;43451;49.060;10.616;2023-10-08T03:35:48;97405.59;;;14.30;86.41
57628;BME280;43451;49.060;10.616;2023-10-08T03:38:25;97405.91;;;14.43;86.35
57628;BME280;43451;49.060;10.616;2023-10-08T03:40:56;97396.56;;;14.40;86.51
57628;BME280;43451;49.060;10.616;2023-10-08T03:43:26;97411.75;;;14.52;82.95
57628;BME280;43451;49.060;10.616;2023-10-08T03:46:12;97409.78;;;14.49;86.06
57628;BME280;43451;49.060;10.616;2023-10-08T03:48:42;97405.09;;;14.56;83.44
57628;BME280;43451;49.060;10.616;2023-10-08T03:51:11;97412.09;;;14.57;84.08
57628;BME280;43451;49.060;10.616;2023-10-08T03:53:40;97417.59;;;14.54;83.81
57628;BME280;43451;49.060;10.616;2023-10-08T03:56:35;97423.00;;;14.65;82.77
57628;BME280;43451;49.060;10.616;2023-10-08T03:59:05;97430.09;;;14.55;84.85
57628;BME280;43451;49.060;10.616;2023-10-08T04:01:42;97422.31;;;14.53;86.88
57628;BME280;43451;49.060;10.616;2023-10-08T04:04:09;97427.78;;;14.43;91.07
57628;BME280;43451;49.060;10.616;2023-10-08T04:06:40;97432.91;;;14.33;89.76
57628;BME280;43451;49.060;10.616;2023-10-08T04:09:13;97425.06;;;14.39;88.15
57628;BME280;43451;49.060;10.616;2023-10-08T04:11:44;97425.84;;;14.39;88.77
57628;BME280;43451;49.060;10.616;2023-10-08T04:14:12;97436.13;;;14.21;92.97
57628;BME280;43451;49.060;10.616;2023-10-08T04:16:38;97428.75;;;14.07;95.08
57628;BME280;43451;49.060;10.616;2023-10-08T04:19:04;97434.28;;;13.93;98.21
57628;BME280;43451;49.060;10.616;2023-10-08T04:21:30;97435.03;;;13.93;98.54
57628;BME280;43451;49.060;10.616;2023-10-08T04:24:01;97437.03;;;13.89;97.81
57628;BME280;43451;49.060;10.616;2023-10-08T04:26:30;97442.84;;;13.91;98.60
57628;BME280;43451;49.060;10.616;2023-10-08T04:28:58;97448.28;;;14.02;96.63
57628;BME280;43451;49.060;10.616;2023-10-08T04:31:28;97456.88;;;13.97;97.88
57628;BME280;43451;49.060;10.616;2023-10-08T04:34:01;97464.66;;;14.06;97.88
57628;BME280;43451;49.060;10.616;2023-10-08T04:36:32;97458.41;;;14.09;97.96
57628;BME280;43451;49.060;10.616;2023-10-08T04:38:57;97459.94;;;14.17;97.12
57628;BME280;43451;49.060;10.616;2023-10-08T04:41:29;97463.41;;;14.28;96.17
57628;BME280;43451;49.060;10.616;2023-10-08T04:43:55;97463.75;;;14.37;96.87
57628;BME280;43451;49.060;10.616;2023-10-08T04:46:21;97460.63;;;14.39;97.01
57628;BME280;43451;49.060;10.616;2023-10-08T04:49:05;97468.34;;;14.66;94.92
57628;BME280;43451;49.060;10.616;2023-10-08T04:51:33;97468.25;;;14.76;94.38
57628;BME280;43451;49.060;10.616;2023-10-08T04:54:10;97464.72;;;14.79;93.22
57628;BME280;43451;49.060;10.616;2023-10-08T04:56:42;97461.06;;;14.97;91.33
57628;BME280;43451;49.060;10.616;2023-10-08T04:59:07;97464.94;;;15.03;90.74
57628;BME280;43451;49.060;10.616;2023-10-08T05:01:37;97471.22;;;15.00;91.47
57628;BME280;43451;49.060;10.616;2023-10-08T05:04:13;97458.72;;;14.99;91.03
57628;BME280;43451;49.060;10.616;2023-10-08T05:06:58;97457.91;;;15.02;90.71
57628;BME280;43451;49.060;10.616;2023-10-08T05:09:42;97448.13;;;15.04;92.19
57628;BME280;43451;49.060;10.616;2023-10-08T05:12:25;97452.06;;;15.03;91.89
57628;BME280;43451;49.060;10.616;2023-10-08T05:14:54;97460.16;;;15.14;91.17
57628;BME280;43451;49.060;10.616;2023-10-08T05:17:44;97466.53;;;15.00;92.16
57628;BME280;43451;49.060;10.616;2023-10-08T05:20:20;97461.88;;;14.94;92.89
57628;BME280;43451;49.060;10.616;2023-10-08T05:23:16;97464.34;;;14.77;94.01
57628;BME280;43451;49.060;10.616;2023-10-08T05:25:46;97454.25;;;14.67;94.83
57628;BME280;43451;49.060;10.616;2023-10-08T05:28:38;97447.28;;;14.48;98.26
57628;BME280;43451;49.060;10.616;2023-10-08T05:31:28;97465.63;;;14.62;96.60
57628;BME280;43451;49.060;10.616;2023-10-08T05:34:11;97467.22;;;14.45;98.59
57628;BME280;43451;49.060;10.616;2023-10-08T05:36:48;97466.13;;;14.28;100.00
57628;BME280;43451;49.060;10.616;2023-10-08T05:39:39;97455.25;;;14.21;99.44
57628;BME280;43451;49.060;10.616;2023-10-08T05:42:08;97466.56;;;14.20;99.11
57628;BME280;43451;49.060;10.616;2023-10-08T05:44:45;97470.34;;;14.47;96.95
57628;BME280;43451;49.060;10.616;2023-10-08T05:47:15;97472.38;;;14.29;99.38
57628;BME280;43451;49.060;10.616;2023-10-08T05:49:41;97465.81;;;14.12;100.00
57628;BME280;43451;49.060;10.616;2023-10-08T05:52:20;97458.03;;;14.03;100.00
57628;BME280;43451;49.060;10.616;2023-10-08T05:55:06;97452.97;;;13.98;100.00
57628;BME280;43451;49.060;10.616;2023-10-08T05:58:00;97449.88;;;13.89;100.00
57628;BME280;43451;49.060;10.616;2023-10-08T06:00:49;97451.44;;;13.90;100.00
57628;BME280;43451;49.060;10.616;2023-10-08T06:03:14;97456.94;;;13.76;100.00
57628;BME280;43451;49.060;10.616;2023-10-08T06:06:00;97458.13;;;13.78;100.00
57628;BME280;43451;49.060;10.616;2023-10-08T06:08:39;97464.75;;;13.77;100.00
57628;BME280;43451;49.060;10.616;2023-10-08T06:11:18;97464.75;;;13.77;100.00
57628;BME280;43451;49.060;10.616;2023-10-08T06:14:03;97458.44;;;13.94;100.00
57628;BME280;43451;49.060;10.616;2023-10-08T06:16:41;97453.75;;;14.02;100.00
57628;BME280;43451;49.060;10.616;2023-10-08T06:19:08;97450.25;;;13.98;100.00
57628;BME280;43451;49.060;10.616;2023-10-08T06:21:38;97449.84;;;14.00;100.00
57628;BME280;43451;49.060;10.616;2023-10-08T06:24:06;97447.50;;;14.02;100.00
57628;BME280;43451;49.060;10.616;2023-10-08T06:26:39;97459.56;;;14.15;100.00
57628;BME280;43451;49.060;10.616;2023-10-08T06:29:11;97456.84;;;14.08;100.00
57628;BME280;43451;49.060;10.616;2023-10-08T06:31:46;97453.75;;;14.06;100.00
57628;BME280;43451;49.060;10.616;2023-10-08T06:34:17;97454.09;;;14.15;100.00
57628;BME280;43451;49.060;10.616;2023-10-08T06:36:47;97448.25;;;14.13;100.00
57628;BME280;43451;49.060;10.616;2023-10-08T06:39:13;97449.81;;;14.10;100.00
57628;BME280;43451;49.060;10.616;2023-10-08T06:41:44;97447.47;;;14.09;100.00
57628;BME280;43451;49.060;10.616;2023-10-08T06:44:11;97443.16;;;14.15;100.00
57628;BME280;43451;49.060;10.616;2023-10-08T06:46:39;97447.84;;;14.11;100.00
57628;BME280;43451;49.060;10.616;2023-10-08T06:49:07;97458.34;;;14.23;100.00
57628;BME280;43451;49.060;10.616;2023-10-08T06:51:39;97466.97;;;14.18;100.00
57628;BME280;43451;49.060;10.616;2023-10-08T06:54:07;97477.06;;;14.28;100.00
57628;BME280;43451;49.060;10.616;2023-10-08T06:56:36;97491.88;;;14.34;100.00
57628;BME280;43451;49.060;10.616;2023-10-08T06:59:02;97487.56;;;14.40;100.00
57628;BME280;43451;49.060;10.616;2023-10-08T07:01:28;97504.34;;;14.43;100.00
57628;BME280;43451;49.060;10.616;2023-10-08T07:04:04;97499.25;;;14.45;100.00
57628;BME280;43451;49.060;10.616;2023-10-08T07:06:34;97505.47;;;14.49;100.00
57628;BME280;43451;49.060;10.616;2023-10-08T07:09:03;97497.69;;;14.51;100.00
57628;BME280;43451;49.060;10.616;2023-10-08T07:11:32;97496.47;;;14.62;100.00
57628;BME280;43451;49.060;10.616;2023-10-08T07:14:02;97505.81;;;14.65;100.00
57628;BME280;43451;49.060;10.616;2023-10-08T07:16:30;97494.06;;;14.75;100.00
57628;BME280;43451;49.060;10.616;2023-10-08T07:18:55;97488.16;;;14.80;100.00
57628;BME280;43451;49.060;10.616;2023-10-08T07:21:27;97492.84;;;14.80;100.00
57628;BME280;43451;49.060;10.616;2023-10-08T07:24:13;97497.88;;;14.89;100.00
57628;BME280;43451;49.060;10.616;2023-10-08T07:26:47;97505.66;;;14.97;100.00
57628;BME280;43451;49.060;10.616;2023-10-08T07:29:15;97486.13;;;14.95;100.00
57628;BME280;43451;49.060;10.616;2023-10-08T07:31:47;97494.25;;;15.02;100.00
57628;BME280;43451;49.060;10.616;2023-10-08T07:34:17;97493.06;;;15.07;100.00
57628;BME280;43451;49.060;10.616;2023-10-08T07:36:48;97508.72;;;15.06;100.00
57628;BME280;43451;49.060;10.616;2023-10-08T07:39:15;97512.09;;;15.25;100.00
57628;BME280;43451;49.060;10.616;2023-10-08T07:42:04;97506.06;;;15.48;100.00
57628;BME280;43451;49.060;10.616;2023-10-08T07:44:34;97510.53;;;15.72;100.00
57628;BME280;43451;49.060;10.616;2023-10-08T07:47:01;97506.63;;;15.73;100.00
57628;BME280;43451;49.060;10.616;2023-10-08T07:49:31;97523.44;;;15.75;100.00
57628;BME280;43451;49.060;10.616;2023-10-08T07:51:57;97532.03;;;15.77;100.00
57628;BME280;43451;49.060;10.616;2023-10-08T07:54:25;97530.81;;;15.82;100.00
57628;BME280;43451;49.060;10.616;2023-10-08T07:56:54;97525.28;;;15.86;100.00
57628;BME280;43451;49.060;10.616;2023-10-08T07:59:35;97531.75;;;16.06;100.00
57628;BME280;43451;49.060;10.616;2023-10-08T08:02:07;97527.47;;;16.01;100.00
57628;BME280;43451;49.060;10.616;2023-10-08T08:04:38;97535.75;;;15.98;100.00
57628;BME280;43451;49.060;10.616;2023-10-08T08:07:06;97537.34;;;15.95;100.00
57628;BME280;43451;49.060;10.616;2023-10-08T08:09:31;97535.69;;;16.01;100.00
57628;BME280;43451;49.060;10.616;2023-10-08T08:12:05;97524.31;;;16.07;100.00
57628;BME280;43451;49.060;10.616;2023-10-08T08:14:33;97522.63;;;16.16;100.00
57628;BME280;43451;49.060;10.616;2023-10-08T08:16:58;97518.69;;;16.21;100.00
57628;BME280;43451;49.060;10.616;2023-10-08T08:19:39;97545.25;;;16.28;100.00
57628;BME280;43451;49.060;10.616;2023-10-08T08:22:05;97568.63;;;16.36;100.00
57628;BME280;43451;49.060;10.616;2023-10-08T08:24:30;97575.09;;;16.56;97.63
57628;BME280;43451;49.060;10.616;2023-10-08T08:27:02;97567.63;;;16.57;96.82
57628;BME280;43451;49.060;10.616;2023-10-08T08:29:36;97582.19;;;16.88;98.90
57628;BME280;43451;49.060;10.616;2023-10-08T08:32:12;97583.16;;;17.28;94.36
57628;BME280;43451;49.060;10.616;2023-10-08T08:34:44;97593.72;;;17.57;92.72
57628;BME280;43451;49.060;10.616;2023-10-08T08:37:13;97602.97;;;17.70;87.78
57628;BME280;43451;49.060;10.616;2023-10-08T08:39:39;97576.03;;;17.85;88.24
57628;BME280;43451;49.060;10.616;2023-10-08T08:42:06;97569.69;;;17.88;88.19
57628;BME280;43451;49.060;10.616;2023-10-08T08:44:35;97574.72;;;17.93;91.57
57628;BME280;43451;49.060;10.616;2023-10-08T08:47:05;97567.91;;;18.01;88.08
57628;BME280;43451;49.060;10.616;2023-10-08T08:49:36;97562.97;;;17.93;90.36
57628;BME280;43451;49.060;10.616;2023-10-08T08:52:04;97577.19;;;18.11;85.70
57628;BME280;43451;49.060;10.616;2023-10-08T08:54:30;97569.94;;;18.21;87.10
57628;BME280;43451;49.060;10.616;2023-10-08T08:56:57;97567.03;;;18.08;88.59
57628;BME280;43451;49.060;10.616;2023-10-08T08:59:26;97568.19;;;18.07;89.86
57628;BME280;43451;49.060;10.616;2023-10-08T09:01:57;97565.38;;;18.10;83.63
57628;BME280;43451;49.060;10.616;2023-10-08T09:04:30;97561.72;;;18.17;87.17
57628;BME280;43451;49.060;10.616;2023-10-08T09:06:56;97586.91;;;18.16;88.27
57628;BME280;43451;49.060;10.616;2023-10-08T09:09:23;97582.84;;;18.24;87.09
57628;BME280;43451;49.060;10.616;2023-10-08T09:11:49;97576.59;;;18.43;84.40
57628;BME280;43451;49.060;10.616;2023-10-08T09:14:24;97582.78;;;18.47;80.00
57628;BME280;43451;49.060;10.616;2023-10-08T09:16:53;97580.63;;;18.59;80.08
57628;BME280;43451;49.060;10.616;2023-10-08T09:19:21;97591.75;;;18.51;78.76
57628;BME280;43451;49.060;10.616;2023-10-08T09:22:19;97602.66;;;18.35;81.78
57628;BME280;43451;49.060;10.616;2023-10-08T09:24:45;97590.25;;;18.27;84.11
57628;BME280;43451;49.060;10.616;2023-10-08T09:27:12;97594.47;;;18.12;82.36
57628;BME280;43451;49.060;10.616;2023-10-08T09:29:41;97585.13;;;18.05;81.92
57628;BME280;43451;49.060;10.616;2023-10-08T09:32:13;97575.88;;;17.96;83.04
57628;BME280;43451;49.060;10.616;2023-10-08T09:34:39;97574.50;;;17.84;88.65
57628;BME280;43451;49.060;10.616;2023-10-08T09:37:05;97575.81;;;17.72;87.66
57628;BME280;43451;49.060;10.616;2023-10-08T09:39:32;97562.59;;;17.91;87.43
57628;BME280;43451;49.060;10.616;2023-10-08T09:42:03;97555.56;;;17.90;88.23
57628;BME280;43451;49.060;10.616;2023-10-08T09:44:29;97555.81;;;17.72;91.49
57628;BME280;43451;49.060;10.616;2023-10-08T09:47:06;97559.06;;;17.67;90.33
57628;BME280;43451;49.060;10.616;2023-10-08T09:49:45;97563.03;;;17.62;92.26
57628;BME280;43451;49.060;10.616;2023-10-08T09:52:16;97560.75;;;17.57;92.29
57628;BME280;43451;49.060;10.616;2023-10-08T09:54:53;97560.34;;;17.58;90.08
57628;BME280;43451;49.060;10.616;2023-10-08T09:57:21;97555.56;;;17.62;91.12
57628;BME280;43451;49.060;10.616;2023-10-08T09:59:49;97549.09;;;17.76;88.82
57628;BME280;43451;49.060;10.616;2023-10-08T10:02:16;97556.53;;;17.76;88.89
57628;BME280;43451;49.060;10.616;2023-10-08T10:04:45;97556.72;;;17.65;90.00
57628;BME280;43451;49.060;10.616;2023-10-08T10:07:13;97563.09;;;17.58;92.47
57628;BME280;43451;49.060;10.616;2023-10-08T10:09:43;97562.41;;;17.54;89.42
57628;BME280;43451;49.060;10.616;2023-10-08T10:12:11;97559.41;;;17.45;92.13
57628;BME280;43451;49.060;10.616;2023-10-08T10:14:46;97562.59;;;17.40;93.54
57628;BME280;43451;49.060;10.616;2023-10-08T10:17:19;97578.31;;;17.39;95.26
57628;BME280;43451;49.060;10.616;2023-10-08T10:20:04;97580.59;;;17.45;95.54
57628;BME280;43451;49.060;10.616;2023-10-08T10:22:36;97590.34;;;17.49;92.55
57628;BME280;43451;49.060;10.616;2023-10-08T10:25:02;97589.88;;;17.54;92.73
57628;BME280;43451;49.060;10.616;2023-10-08T10:30:19;97593.28;;;17.89;89.68
57628;BME280;43451;49.060;10.616;2023-10-08T10:32:45;97595.53;;;17.94;92.83
57628;BME280;43451;49.060;10.616;2023-10-08T10:35:17;97606.59;;;17.91;89.60
57628;BME280;43451;49.060;10.616;2023-10-08T10:37:46;97606.19;;;17.92;93.13
57628;BME280;43451;49.060;10.616;2023-10-08T10:40:22;97587.47;;;17.83;93.50
57628;BME280;43451;49.060;10.616;2023-10-08T10:43:17;97604.72;;;18.07;90.30
57628;BME280;43451;49.060;10.616;2023-10-08T10:45:45;97620.38;;;18.10;92.52
57628;BME280;43451;49.060;10.616;2023-10-08T10:48:13;97617.81;;;18.23;92.40
57628;BME280;43451;49.060;10.616;2023-10-08T10:50:40;97606.75;;;18.27;89.32
57628;BME280;43451;49.060;10.616;2023-10-08T10:53:24;97607.19;;;18.45;nan
57628;BME280;43451;49.060;10.616;2023-10-08T10:55:52;97607.69;;;18.60;87.38
57628;BME280;43451;49.060;10.616;2023-10-08T10:58:25;97594.81;;;18.77;84.90
57628;BME280;43451;49.060;10.616;2023-10-08T11:00:52;97593.84;;;18.87;85.06
57628;BME280;43451;49.060;10.616;2023-10-08T11:03:24;97609.19;;;19.05;85.63
57628;BME280;43451;49.060;10.616;2023-10-08T11:05:56;97597.16;;;19.15;78.62
57628;BME280;43451;49.060;10.616;2023-10-08T11:08:25;97588.25;;;19.27;79.23
57628;BME280;43451;49.060;10.616;2023-10-08T11:10:52;97576.53;;;19.23;83.12
57628;BME280;43451;49.060;10.616;2023-10-08T11:13:23;97566.09;;;19.31;83.55
57628;BME280;43451;49.060;10.616;2023-10-08T11:15:54;97553.53;;;19.30;82.66
57628;BME280;43451;49.060;10.616;2023-10-08T11:18:24;97566.19;;;19.27;86.64
57628;BME280;43451;49.060;10.616;2023-10-08T11:20:51;97562.06;;;19.19;89.77
57628;BME280;43451;49.060;10.616;2023-10-08T11:23:34;97548.28;;;19.19;88.79
57628;BME280;43451;49.060;10.616;2023-10-08T11:26:02;97551.56;;;19.30;86.49
57628;BME280;43451;49.060;10.616;2023-10-08T11:28:37;97554.69;;;19.48;83.12
57628;BME280;43451;49.060;10.616;2023-10-08T11:31:14;97565.16;;;19.37;79.42
57628;BME280;43451;49.060;10.616;2023-10-08T11:33:42;97569.13;;;19.36;83.93
57628;BME280;43451;49.060;10.616;2023-10-08T11:36:08;97563.63;;;19.36;78.90
57628;BME280;43451;49.060;10.616;2023-10-08T11:38:54;97555.63;;;19.42;83.22
57628;BME280;43451;49.060;10.616;2023-10-08T11:41:27;97556.31;;;19.46;82.82
57628;BME280;43451;49.060;10.616;2023-10-08T11:43:55;97549.00;;;19.39;83.73
57628;BME280;43451;49.060;10.616;2023-10-08T11:46:28;97547.94;;;19.33;85.64
57628;BME280;43451;49.060;10.616;2023-10-08T11:49:08;97553.53;;;19.30;84.01
57628;BME280;43451;49.060;10.616;2023-10-08T11:51:43;97557.94;;;19.43;84.94
57628;BME280;43451;49.060;10.616;2023-10-08T11:54:09;97545.09;;;19.53;83.70
57628;BME280;43451;49.060;10.616;2023-10-08T11:56:37;97537.97;;;19.56;83.28
57628;BME280;43451;49.060;10.616;2023-10-08T11:59:04;97546.59;;;19.58;86.45
57628;BME280;43451;49.060;10.616;2023-10-08T12:01:37;97539.09;;;19.75;83.64
57628;BME280;43451;49.060;10.616;2023-10-08T12:04:08;97553.31;;;19.89;81.78
57628;BME280;43451;49.060;10.616;2023-10-08T12:06:39;97561.03;;;19.94;76.49
57628;BME280;43451;49.060;10.616;2023-10-08T12:09:14;97565.69;;;19.98;81.60
57628;BME280;43451;49.060;10.616;2023-10-08T12:11:40;97571.56;;;20.00;80.97
57628;BME280;43451;49.060;10.616;2023-10-08T12:14:06;97571.47;;;20.03;76.50
57628;BME280;43451;49.060;10.616;2023-10-08T12:16:32;97571.81;;;20.05;75.91
57628;BME280;43451;49.060;10.616;2023-10-08T12:19:02;97579.81;;;20.16;74.52
57628;BME280;43451;49.060;10.616;2023-10-08T12:21:28;97584.16;;;20.01;79.41
57628;BME280;43451;49.060;10.616;2023-10-08T12:23:57;97588.03;;;20.03;74.82
57628;BME280;43451;49.060;10.616;2023-10-08T12:26:23;97587.44;;;19.96;76.13
57628;BME280;43451;49.060;10.616;2023-10-08T12:28:50;97592.78;;;20.03;74.74
57628;BME280;43451;49.060;10.616;2023-10-08T12:31:18;97593.59;;;20.16;75.17
57628;BME280;43451;49.060;10.616;2023-10-08T12:33:48;97582.94;;;20.18;77.50
57628;BME280;43451;49.060;10.616;2023-10-08T12:36:14;97579.28;;;20.21;74.61
57628;BME280;43451;49.060;10.616;2023-10-08T12:38:43;97570.91;;;20.25;75.40
57628;BME280;43451;49.060;10.616;2023-10-08T12:41:12;97571.22;;;20.14;74.85
57628;BME280;43451;49.060;10.616;2023-10-08T12:43:42;97574.97;;;20.20;77.18
57628;BME280;43451;49.060;10.616;2023-10-08T12:46:11;97568.53;;;20.10;74.15
57628;BME280;43451;49.060;10.616;2023-10-08T12:48:46;97570.31;;;20.17;78.43
57628;BME280;43451;49.060;10.616;2023-10-08T12:51:18;97560.66;;;20.25;73.57
57628;BME280;43451;49.060;10.616;2023-10-08T12:53:44;97556.66;;;20.26;77.43
57628;BME280;43451;49.060;10.616;2023-10-08T12:56:17;97550.47;;;20.22;76.14
57628;BME280;43451;49.060;10.616;2023-10-08T12:58:47;97554.97;;;20.16;76.45
57628;BME280;43451;49.060;10.616;2023-10-08T13:01:16;97548.94;;;20.21;79.01
57628;BME280;43451;49.060;10.616;2023-10-08T13:03:46;97539.91;;;20.21;78.43
57628;BME280;43451;49.060;10.616;2023-10-08T13:06:17;97547.66;;;20.38;75.77
57628;BME280;43451;49.060;10.616;2023-10-08T13:08:57;97540.03;;;20.59;75.35
57628;BME280;43451;49.060;10.616;2023-10-08T13:11:25;97543.63;;;20.43;77.60
57628;BME280;43451;49.060;10.616;2023-10-08T13:13:52;97554.03;;;20.52;75.31